Time;durP1;ratioP1;P1;durP2;ratioP2;P2;SDS_P1;SDS_P2;PMS_P1;PMS_P2;Temp;Humidity;BMP_temperature;BMP_pressure;BME280_temperature;BME280_humidity;BME280_pressure;Samples;Min_cycle;Max_cycle;Signal;HPM_P1;HPM_P2
2021/12/09 00:01:48;;;;;;;69.25;35.28;;;;;;;0.23;100.00;100352.19;4896585;29;20036;-78
2021/12/09 00:04:24;;;;;;;68.35;35.42;;;;;;;0.22;100.00;100345.38;4876753;29;20890;-77
2021/12/09 00:06:50;;;;;;;74.00;35.30;;;;;;;0.31;100.00;100355.16;4876691;29;20060;-77
2021/12/09 00:09:18;;;;;;;77.45;37.72;;;;;;;0.26;100.00;100350.25;4892036;29;20804;-76
2021/12/09 00:11:46;;;;;;;74.07;36.42;;;;;;;0.27;100.00;100339.03;4874955;29;20054;-77
2021/12/09 00:14:16;;;;;;;71.45;35.88;;;;;;;0.27;100.00;100344.19;4877551;29;20047;-77
2021/12/09 00:16:42;;;;;;;70.65;35.88;;;;;;;0.26;100.00;100339.09;4878269;29;20040;-77
2021/12/09 00:19:08;;;;;;;70.22;34.58;;;;;;;0.39;100.00;100340.88;4874675;29;20173;-78
2021/12/09 00:21:34;;;;;;;69.93;34.78;;;;;;;0.33;100.00;100335.25;4874739;29;20344;-76
2021/12/09 00:24:00;;;;;;;71.93;35.65;;;;;;;0.30;100.00;100330.25;4876632;29;20521;-77
2021/12/09 00:26:26;;;;;;;72.43;36.30;;;;;;;0.32;100.00;100338.75;4874906;29;20064;-78
2021/12/09 00:28:52;;;;;;;72.13;35.92;;;;;;;0.30;100.00;100341.44;4875504;29;20036;-78
2021/12/09 00:31:18;;;;;;;68.95;35.17;;;;;;;0.40;100.00;100331.41;4890740;29;20040;-78
2021/12/09 00:33:46;;;;;;;70.00;36.30;;;;;;;0.33;100.00;100330.09;4860751;29;20044;-76
2021/12/09 00:36:16;;;;;;;72.45;36.88;;;;;;;0.25;100.00;100332.31;4876685;29;20363;-77
2021/12/09 00:38:42;;;;;;;70.22;34.85;;;;;;;0.22;100.00;100325.56;4874500;29;20037;-78
2021/12/09 00:41:14;;;;;;;71.22;36.15;;;;;;;0.26;100.00;100319.28;4874915;29;20044;-78
2021/12/09 00:43:41;;;;;;;72.18;35.95;;;;;;;0.28;100.00;100326.94;4855936;29;20509;-78
2021/12/09 00:46:08;;;;;;;76.10;38.15;;;;;;;0.28;100.00;100321.78;4889401;29;20040;-77
2021/12/09 00:48:35;;;;;;;73.18;37.25;;;;;;;0.25;100.00;100322.00;4871643;29;20072;-77
2021/12/09 00:51:02;;;;;;;76.38;37.17;;;;;;;0.15;100.00;100312.22;4875537;29;20040;-76
2021/12/09 00:53:27;;;;;;;75.68;37.97;;;;;;;0.23;100.00;100313.47;4874830;29;20055;-78
2021/12/09 00:55:53;;;;;;;75.65;36.65;;;;;;;0.17;100.00;100320.69;4891150;29;20135;-77
2021/12/09 00:58:20;;;;;;;72.50;36.15;;;;;;;0.15;100.00;100324.25;4890562;29;20049;-77
2021/12/09 01:00:47;;;;;;;75.68;37.78;;;;;;;0.15;100.00;100325.09;4875751;29;20059;-77
2021/12/09 01:03:12;;;;;;;75.15;37.60;;;;;;;0.17;100.00;100312.09;4878182;29;20048;-76
2021/12/09 01:05:38;;;;;;;76.20;37.53;;;;;;;0.13;100.00;100311.47;4862524;29;20411;-76
2021/12/09 01:08:05;;;;;;;77.57;38.78;;;;;;;0.09;100.00;100320.28;4861928;29;20040;-77
2021/12/09 01:10:30;;;;;;;73.00;37.75;;;;;;;0.09;100.00;100324.63;4878023;29;20032;-78
2021/12/09 01:12:56;;;;;;;80.95;38.35;;;;;;;0.08;100.00;100325.56;4868212;29;20075;-78
2021/12/09 01:15:24;;;;;;;77.10;37.50;;;;;;;0.16;100.00;100323.34;4894391;29;20493;-77
2021/12/09 01:17:50;;;;;;;72.45;37.85;;;;;;;0.10;100.00;100326.28;4898412;29;20491;-77
2021/12/09 01:20:18;;;;;;;78.03;39.03;;;;;;;0.07;100.00;100329.84;4895293;29;20048;-77
2021/12/09 01:22:46;;;;;;;76.00;38.63;;;;;;;-0.04;100.00;100322.78;4893609;29;20124;-79
2021/12/09 01:25:16;;;;;;;81.50;39.10;;;;;;;0.06;100.00;100319.63;4878555;29;20040;-78
2021/12/09 01:27:45;;;;;;;78.90;40.90;;;;;;;0.04;100.00;100308.56;4876252;29;20490;-77
2021/12/09 01:30:16;;;;;;;81.60;41.13;;;;;;;0.07;100.00;100308.41;4875398;29;20609;-77
2021/12/09 01:32:48;;;;;;;79.00;40.47;;;;;;;0.06;100.00;100306.72;4886224;29;20041;-77
2021/12/09 01:35:22;;;;;;;83.75;41.00;;;;;;;0.01;100.00;100316.50;4860818;29;20075;-76
2021/12/09 01:37:52;;;;;;;87.30;40.80;;;;;;;0.06;100.00;100317.06;4860865;29;20032;-78
2021/12/09 01:40:18;;;;;;;86.55;41.88;;;;;;;0.08;100.00;100317.81;4863592;29;20051;-76
2021/12/09 01:42:44;;;;;;;84.25;42.28;;;;;;;-0.01;100.00;100314.00;4889507;29;20041;-77
2021/12/09 01:45:10;;;;;;;89.43;42.95;;;;;;;-0.10;100.00;100322.28;4875681;29;20159;-77
2021/12/09 01:47:36;;;;;;;92.07;43.97;;;;;;;0.03;100.00;100330.16;4889562;29;20100;-79
2021/12/09 01:50:03;;;;;;;91.78;43.53;;;;;;;0.11;100.00;100327.94;4875394;29;20036;-77
2021/12/09 01:52:29;;;;;;;89.88;42.45;;;;;;;0.02;100.00;100324.16;4890172;29;20072;-76
2021/12/09 01:54:54;;;;;;;89.30;42.00;;;;;;;-0.09;100.00;100313.63;4892116;29;20071;-77
2021/12/09 01:57:20;;;;;;;86.85;43.03;;;;;;;0.01;100.00;100326.81;4890493;29;20055;-76
2021/12/09 01:59:47;;;;;;;88.97;42.42;;;;;;;0.06;100.00;100319.63;4872625;29;20510;-78
2021/12/09 02:02:13;;;;;;;88.03;42.40;;;;;;;0.07;100.00;100321.31;4872871;29;20051;-76
2021/12/09 02:04:38;;;;;;;88.63;42.22;;;;;;;0.02;100.00;100320.72;4891658;29;20124;-76
2021/12/09 02:07:04;;;;;;;94.22;44.33;;;;;;;-0.01;100.00;100311.44;4874709;29;20045;-76
2021/12/09 02:09:30;;;;;;;90.03;43.97;;;;;;;-0.03;100.00;100316.69;4887740;29;20542;-76
2021/12/09 02:11:55;;;;;;;89.45;43.45;;;;;;;-0.02;100.00;100313.19;4888523;29;20044;-76
2021/12/09 02:14:21;;;;;;;95.60;44.30;;;;;;;-0.07;100.00;100314.38;4857436;29;20832;-76
2021/12/09 02:16:47;;;;;;;91.75;43.85;;;;;;;-0.03;100.00;100301.22;4889815;29;20041;-78
2021/12/09 02:19:14;;;;;;;98.82;44.97;;;;;;;-0.03;100.00;100290.06;4890662;29;20045;-75
2021/12/09 02:21:40;;;;;;;90.28;43.47;;;;;;;-0.04;100.00;100293.56;4889390;29;20033;-77
2021/12/09 02:24:09;;;;;;;93.78;44.03;;;;;;;-0.05;100.00;100300.47;4859480;29;20066;-78
2021/12/09 02:26:38;;;;;;;97.13;44.33;;;;;;;-0.01;100.00;100290.81;4874760;29;20040;-76
2021/12/09 02:29:08;;;;;;;95.18;45.50;;;;;;;0.00;100.00;100287.31;4874833;29;20078;-77
2021/12/09 02:31:34;;;;;;;99.95;45.00;;;;;;;-0.10;100.00;100289.59;4874380;29;20189;-76
2021/12/09 02:34:00;;;;;;;92.80;43.22;;;;;;;-0.07;100.00;100291.19;4875846;29;20032;-76
2021/12/09 02:36:27;;;;;;;97.13;45.22;;;;;;;-0.09;100.00;100291.25;4860585;29;20052;-79
2021/12/09 02:38:53;;;;;;;102.43;45.33;;;;;;;-0.13;100.00;100294.94;4861713;29;20116;-77
2021/12/09 02:41:23;;;;;;;98.40;45.35;;;;;;;-0.01;100.00;100301.94;4890230;29;20084;-78
2021/12/09 02:43:58;;;;;;;97.40;44.83;;;;;;;-0.05;100.00;100300.47;4891792;29;20032;-78
2021/12/09 02:46:25;;;;;;;97.47;44.90;;;;;;;-0.14;100.00;100300.19;4891111;29;20131;-77
2021/12/09 02:48:52;;;;;;;99.22;45.50;;;;;;;-0.17;100.00;100297.75;4858632;29;20063;-77
2021/12/09 02:51:17;;;;;;;97.38;43.58;;;;;;;-0.11;100.00;100311.16;4890088;29;20070;-78
2021/12/09 02:53:44;;;;;;;90.88;43.05;;;;;;;-0.13;100.00;100305.25;4877039;29;20067;-79
2021/12/09 02:56:11;;;;;;;91.72;44.25;;;;;;;-0.02;100.00;100317.50;4858930;29;20099;-78
2021/12/09 02:58:37;;;;;;;96.43;44.78;;;;;;;-0.06;100.00;100321.19;4874724;29;20040;-76
2021/12/09 03:01:15;;;;;;;96.82;43.95;;;;;;;-0.07;100.00;100309.22;4861068;29;20036;-77
2021/12/09 03:03:50;;;;;;;99.30;45.58;;;;;;;-0.04;100.00;100317.63;4871486;29;20045;-77
2021/12/09 03:06:17;;;;;;;100.22;44.92;;;;;;;-0.07;100.00;100304.88;4876275;29;20706;-77
2021/12/09 03:08:43;;;;;;;100.43;44.95;;;;;;;-0.09;100.00;100316.22;4892204;29;20037;-77
2021/12/09 03:11:12;;;;;;;92.93;43.70;;;;;;;-0.10;100.00;100320.53;4878474;29;20116;-77
2021/12/09 03:13:40;;;;;;;94.32;43.25;;;;;;;-0.12;100.00;100318.97;4880239;29;20051;-77
2021/12/09 03:16:07;;;;;;;102.93;45.47;;;;;;;-0.12;100.00;100337.84;4894719;29;20066;-77
2021/12/09 03:18:47;;;;;;;97.18;45.42;;;;;;;-0.02;100.00;100343.28;4895125;29;20032;-76
2021/12/09 03:21:14;;;;;;;101.53;45.30;;;;;;;-0.03;100.00;100339.88;4879104;29;20033;-76
2021/12/09 03:23:40;;;;;;;97.68;43.88;;;;;;;-0.12;100.00;100335.25;4869168;29;20056;-77
2021/12/09 03:26:06;;;;;;;104.28;45.13;;;;;;;-0.01;100.00;100335.47;4861589;29;20124;-76
2021/12/09 03:28:32;;;;;;;101.68;44.33;;;;;;;-0.07;100.00;100332.44;4878945;29;20048;-76
2021/12/09 03:30:58;;;;;;;98.70;45.08;;;;;;;-0.09;100.00;100335.09;4894708;29;20088;-77
2021/12/09 03:33:23;;;;;;;108.40;47.05;;;;;;;-0.18;100.00;100327.06;4868500;29;20124;-76
2021/12/09 03:36:03;;;;;;;103.72;45.38;;;;;;;-0.12;100.00;100337.00;4883163;29;20048;-77
2021/12/09 03:38:30;;;;;;;103.93;45.25;;;;;;;-0.11;100.00;100349.81;4909513;29;20044;-79
2021/12/09 03:40:56;;;;;;;104.55;46.08;;;;;;;-0.11;100.00;100361.88;4876609;29;20040;-78
2021/12/09 03:43:22;;;;;;;107.53;47.22;;;;;;;-0.18;100.00;100361.38;4864692;29;20411;-77
2021/12/09 03:45:50;;;;;;;104.60;46.78;;;;;;;-0.21;100.00;100353.81;4867026;29;20123;-77
2021/12/09 03:48:17;;;;;;;105.05;46.08;;;;;;;-0.11;100.00;100352.41;4864037;29;20058;-79
2021/12/09 03:50:45;;;;;;;101.13;45.35;;;;;;;-0.11;100.00;100360.13;4882509;29;20483;-77
2021/12/09 03:53:12;;;;;;;96.00;44.72;;;;;;;-0.14;100.00;100362.06;4865921;29;20064;-77
2021/12/09 03:55:40;;;;;;;104.10;45.90;;;;;;;-0.10;100.00;100359.19;4882986;29;20633;-77
2021/12/09 03:58:07;;;;;;;100.80;45.05;;;;;;;-0.07;100.00;100360.78;4879935;29;20045;-78
2021/12/09 04:00:33;;;;;;;105.85;45.53;;;;;;;-0.15;100.00;100355.22;4895505;29;20033;-79
2021/12/09 04:02:59;;;;;;;104.93;46.17;;;;;;;-0.14;100.00;100359.47;4865749;29;20123;-77
2021/12/09 04:05:25;;;;;;;97.63;44.75;;;;;;;-0.09;100.00;100362.63;4878816;29;20045;-76
2021/12/09 04:07:51;;;;;;;100.95;45.20;;;;;;;-0.21;100.00;100364.13;4895805;29;20127;-77
2021/12/09 04:10:17;;;;;;;102.88;46.22;;;;;;;-0.20;100.00;100360.66;4864830;29;20041;-77
2021/12/09 04:12:43;;;;;;;100.45;45.08;;;;;;;-0.12;100.00;100366.19;4866196;29;20032;-78
2021/12/09 04:15:10;;;;;;;107.80;47.00;;;;;;;-0.15;100.00;100366.38;4880641;29;20040;-78
2021/12/09 04:17:36;;;;;;;101.85;46.28;;;;;;;-0.18;100.00;100363.16;4896043;29;20040;-77
2021/12/09 04:20:05;;;;;;;108.47;48.40;;;;;;;-0.21;100.00;100352.09;4879040;29;20098;-79
2021/12/09 04:22:31;;;;;;;103.57;47.50;;;;;;;-0.24;100.00;100349.69;4879054;29;20044;-77
2021/12/09 04:24:56;;;;;;;105.03;45.83;;;;;;;-0.24;100.00;100341.94;4894252;29;20554;-77
2021/12/09 04:27:23;;;;;;;101.90;45.58;;;;;;;-0.27;100.00;100342.09;4895195;29;21030;-78
2021/12/09 04:29:49;;;;;;;109.55;47.95;;;;;;;-0.30;100.00;100341.44;4893871;29;20048;-78
2021/12/09 04:32:15;;;;;;;101.50;45.55;;;;;;;-0.25;100.00;100348.00;4878511;29;20044;-77
2021/12/09 04:34:41;;;;;;;101.65;46.22;;;;;;;-0.25;100.00;100344.59;4865506;29;20040;-77
2021/12/09 04:37:06;;;;;;;108.70;47.95;;;;;;;-0.25;100.00;100334.28;4864238;29;20055;-76
2021/12/09 04:39:32;;;;;;;103.90;46.40;;;;;;;-0.25;100.00;100327.38;4894260;29;20428;-76
2021/12/09 04:41:58;;;;;;;105.57;46.30;;;;;;;-0.31;100.00;100316.59;4880676;29;20024;-78
2021/12/09 04:44:24;;;;;;;102.20;45.95;;;;;;;-0.32;100.00;100320.94;4894083;29;20063;-77
2021/12/09 04:46:50;;;;;;;102.22;45.78;;;;;;;-0.27;100.00;100318.91;4881075;29;20089;-77
2021/12/09 04:49:16;;;;;;;109.90;47.38;;;;;;;-0.36;100.00;100322.00;4896094;29;20045;-77
2021/12/09 04:51:42;;;;;;;106.93;45.65;;;;;;;-0.36;100.00;100329.75;4879533;29;20031;-77
2021/12/09 04:54:08;;;;;;;102.57;46.20;;;;;;;-0.34;100.00;100327.94;4876860;29;20048;-77
2021/12/09 04:56:35;;;;;;;106.15;46.28;;;;;;;-0.35;100.00;100328.00;4880135;29;20274;-78
2021/12/09 04:59:00;;;;;;;102.88;46.08;;;;;;;-0.25;100.00;100336.88;4879627;29;20570;-78
2021/12/09 05:01:26;;;;;;;104.85;47.17;;;;;;;-0.31;100.00;100339.81;4868901;29;20255;-77
2021/12/09 05:03:52;;;;;;;106.35;46.70;;;;;;;-0.29;100.00;100356.84;4863504;29;20044;-78
2021/12/09 05:06:19;;;;;;;102.47;45.88;;;;;;;-0.25;100.00;100362.66;4864430;29;20040;-77
2021/12/09 05:08:47;;;;;;;107.78;46.80;;;;;;;-0.34;100.00;100348.56;4892941;29;20048;-77
2021/12/09 05:11:30;;;;;;;101.93;46.22;;;;;;;-0.35;100.00;100352.03;4878566;29;20032;-78
2021/12/09 05:13:57;;;;;;;114.20;49.08;;;;;;;-0.41;100.00;100350.63;4894169;29;20459;-78
2021/12/09 05:16:23;;;;;;;115.10;49.33;;;;;;;-0.43;100.00;100347.31;4890127;29;20033;-78
2021/12/09 05:18:50;;;;;;;105.93;46.85;;;;;;;-0.43;100.00;100344.72;4876189;29;20131;-78
2021/12/09 05:21:17;;;;;;;107.65;48.20;;;;;;;-0.44;100.00;100349.97;4875689;29;20033;-76
2021/12/09 05:23:43;;;;;;;100.78;45.67;;;;;;;-0.38;100.00;100362.50;4875685;29;20131;-77
2021/12/09 05:26:09;;;;;;;101.43;46.83;;;;;;;-0.48;100.00;100351.88;4859638;29;20135;-77
2021/12/09 05:28:36;;;;;;;101.07;45.80;;;;;;;-0.36;100.00;100355.50;4875646;29;20062;-77
2021/12/09 05:33:49;;;;;;;106.32;46.58;;;;;;;-0.44;100.00;100366.25;4889583;29;20399;-76
2021/12/09 05:36:16;;;;;;;105.32;45.80;;;;;;;-0.37;100.00;100368.50;4857804;29;20108;-76
2021/12/09 05:38:42;;;;;;;111.85;48.97;;;;;;;-0.42;100.00;100358.44;4877551;29;20037;-77
2021/12/09 05:41:08;;;;;;;106.10;47.58;;;;;;;-0.48;100.00;100356.22;4865981;29;20047;-77
2021/12/09 05:43:38;;;;;;;105.35;48.13;;;;;;;-0.42;100.00;100363.59;4891824;29;20044;-78
2021/12/09 05:46:04;;;;;;;106.15;47.03;;;;;;;-0.35;100.00;100364.91;4892357;29;20047;-76
2021/12/09 05:48:31;;;;;;;103.32;46.25;;;;;;;-0.41;100.00;100373.81;4873281;29;20153;-76
2021/12/09 05:50:57;;;;;;;104.25;46.03;;;;;;;-0.33;100.00;100375.16;4861418;29;20064;-77
2021/12/09 05:53:23;;;;;;;103.43;47.13;;;;;;;-0.50;100.00;100365.78;4875840;29;20109;-78
2021/12/09 05:55:48;;;;;;;99.32;46.08;;;;;;;-0.48;100.00;100371.66;4861970;29;20104;-76
2021/12/09 05:58:17;;;;;;;107.40;48.30;;;;;;;-0.42;100.00;100361.84;4876920;29;20048;-76
2021/12/09 06:00:44;;;;;;;109.78;48.42;;;;;;;-0.50;100.00;100364.03;4876815;29;20129;-76
2021/12/09 06:03:10;;;;;;;107.45;47.22;;;;;;;-0.49;100.00;100362.25;4875796;29;20036;-77
2021/12/09 06:05:37;;;;;;;113.82;49.38;;;;;;;-0.50;100.00;100371.75;4891386;29;20059;-77
2021/12/09 06:08:04;;;;;;;108.95;49.28;;;;;;;-0.51;100.00;100366.69;4890918;29;20045;-76
2021/12/09 06:10:30;;;;;;;108.68;48.30;;;;;;;-0.54;100.00;100375.41;4885853;29;20563;-76
2021/12/09 06:12:56;;;;;;;104.35;47.53;;;;;;;-0.54;100.00;100372.84;4891300;29;20120;-76
2021/12/09 06:15:21;;;;;;;110.65;48.83;;;;;;;-0.55;100.00;100375.50;4878963;29;20159;-77
2021/12/09 06:17:47;;;;;;;107.55;47.25;;;;;;;-0.40;100.00;100380.66;4875832;29;20088;-77
2021/12/09 06:20:13;;;;;;;105.32;47.47;;;;;;;-0.40;100.00;100385.81;4873038;29;20737;-78
2021/12/09 06:22:39;;;;;;;102.32;46.85;;;;;;;-0.43;100.00;100396.28;4876574;29;20040;-76
2021/12/09 06:25:05;;;;;;;100.20;46.80;;;;;;;-0.36;100.00;100401.91;4877660;29;20040;-76
2021/12/09 06:27:31;;;;;;;98.13;46.65;;;;;;;-0.43;100.00;100392.88;4858845;29;20445;-75
2021/12/09 06:29:57;;;;;;;104.95;46.97;;;;;;;-0.41;100.00;100394.44;4890931;29;20037;-76
2021/12/09 06:32:23;;;;;;;104.43;46.92;;;;;;;-0.47;100.00;100381.91;4870698;29;20044;-76
2021/12/09 06:34:48;;;;;;;102.57;47.88;;;;;;;-0.49;100.00;100388.88;4874282;29;20044;-74
2021/12/09 06:37:14;;;;;;;106.88;48.30;;;;;;;-0.52;100.00;100393.38;4874704;29;20047;-75
2021/12/09 06:39:40;;;;;;;107.53;48.83;;;;;;;-0.50;100.00;100379.47;4874825;29;20477;-77
2021/12/09 06:42:07;;;;;;;104.22;47.30;;;;;;;-0.58;100.00;100389.38;4892687;29;20044;-77
2021/12/09 06:44:33;;;;;;;106.05;48.35;;;;;;;-0.47;100.00;100397.34;4880712;29;20041;-75
2021/12/09 06:46:58;;;;;;;99.93;47.95;;;;;;;-0.44;100.00;100406.66;4885002;29;20127;-75
2021/12/09 06:49:24;;;;;;;105.68;47.20;;;;;;;-0.42;100.00;100397.91;4898300;29;20061;-75
2021/12/09 06:51:51;;;;;;;107.90;48.78;;;;;;;-0.41;100.00;100407.31;4896750;29;20042;-76
2021/12/09 06:54:17;;;;;;;106.85;47.92;;;;;;;-0.39;100.00;100402.09;4865222;29;20049;-75
2021/12/09 06:56:42;;;;;;;98.40;45.90;;;;;;;-0.44;100.00;100394.59;4892684;29;20031;-75
2021/12/09 06:59:08;;;;;;;110.57;47.90;;;;;;;-0.47;100.00;100396.50;4893241;29;20029;-75
2021/12/09 07:01:35;;;;;;;106.88;48.42;;;;;;;-0.41;100.00;100397.00;4878893;29;20052;-77
2021/12/09 07:04:01;;;;;;;105.85;49.88;;;;;;;-0.41;100.00;100393.63;4895059;29;20028;-76
2021/12/09 07:06:27;;;;;;;104.50;48.45;;;;;;;-0.39;100.00;100404.66;4892055;29;20044;-77
2021/12/09 07:08:59;;;;;;;104.25;47.65;;;;;;;-0.39;100.00;100402.09;4878829;29;20040;-76
2021/12/09 07:11:24;;;;;;;102.05;46.95;;;;;;;-0.37;100.00;100405.41;4895322;29;20135;-76
2021/12/09 07:13:50;;;;;;;105.13;46.67;;;;;;;-0.41;100.00;100409.06;4892029;29;20115;-76
2021/12/09 07:16:16;;;;;;;109.05;48.70;;;;;;;-0.49;100.00;100404.34;4877895;29;20048;-77
2021/12/09 07:18:42;;;;;;;109.13;49.33;;;;;;;-0.46;100.00;100404.16;4875150;29;20036;-78
2021/12/09 07:21:08;;;;;;;105.68;49.08;;;;;;;-0.47;100.00;100405.09;4879054;29;20032;-76
2021/12/09 07:23:34;;;;;;;108.85;48.15;;;;;;;-0.51;100.00;100400.16;4878913;29;20033;-77
2021/12/09 07:25:59;;;;;;;108.22;47.75;;;;;;;-0.44;100.00;100401.50;4876549;29;20040;-76
2021/12/09 07:28:25;;;;;;;115.55;49.78;;;;;;;-0.49;100.00;100395.75;4876590;29;20061;-77
2021/12/09 07:30:51;;;;;;;107.32;49.03;;;;;;;-0.46;100.00;100406.72;4859168;29;20045;-77
2021/12/09 07:33:17;;;;;;;102.05;47.75;;;;;;;-0.46;100.00;100418.78;4861943;29;20052;-76
2021/12/09 07:35:43;;;;;;;108.50;49.88;;;;;;;-0.51;100.00;100416.47;4878499;29;20096;-77
2021/12/09 07:38:10;;;;;;;114.63;49.90;;;;;;;-0.49;100.00;100421.53;4889827;29;20445;-76
2021/12/09 07:40:36;;;;;;;106.47;47.95;;;;;;;-0.40;100.00;100418.44;4893671;29;20028;-77
2021/12/09 07:43:03;;;;;;;106.03;47.08;;;;;;;-0.37;100.00;100420.06;4878079;29;20044;-76
2021/12/09 07:45:30;;;;;;;106.50;47.65;;;;;;;-0.40;100.00;100418.44;4889854;29;20041;-76
2021/12/09 07:47:56;;;;;;;107.25;47.90;;;;;;;-0.42;100.00;100421.09;4893727;29;20028;-77
2021/12/09 07:50:24;;;;;;;107.07;47.70;;;;;;;-0.52;100.00;100422.53;4889030;29;20048;-76
2021/12/09 07:52:51;;;;;;;104.90;47.63;;;;;;;-0.44;100.00;100420.38;4851406;29;20107;-77
2021/12/09 07:55:20;;;;;;;110.63;49.45;;;;;;;-0.49;100.00;100422.38;4866212;29;20107;-77
2021/12/09 07:57:46;;;;;;;109.55;49.05;;;;;;;-0.38;100.00;100421.78;4877890;29;20042;-77
2021/12/09 08:00:16;;;;;;;116.90;51.53;;;;;;;-0.48;100.00;100426.59;4879030;29;20042;-76
2021/12/09 08:02:45;;;;;;;109.90;49.53;;;;;;;-0.43;100.00;100434.09;4879161;29;20571;-76
2021/12/09 08:05:12;;;;;;;107.53;49.75;;;;;;;-0.39;100.00;100435.59;4882200;29;20040;-76
2021/12/09 08:07:41;;;;;;;111.20;48.85;;;;;;;-0.40;100.00;100442.50;4867906;29;20040;-76
2021/12/09 08:10:08;;;;;;;107.32;49.83;;;;;;;-0.51;100.00;100439.69;4891088;29;20056;-77
2021/12/09 08:12:34;;;;;;;114.72;50.40;;;;;;;-0.43;100.00;100447.81;4892366;29;20040;-75
2021/12/09 08:15:00;;;;;;;104.85;47.97;;;;;;;-0.40;100.00;100454.53;4875333;29;20041;-75
2021/12/09 08:20:05;;;;;;;112.38;49.85;;;;;;;-0.46;100.00;100453.13;4872371;29;20037;-76
2021/12/09 08:22:32;;;;;;;107.97;50.63;;;;;;;-0.52;100.00;100442.31;4862067;29;20029;-77
2021/12/09 08:24:58;;;;;;;108.90;50.33;;;;;;;-0.43;100.00;100452.13;4877209;29;20119;-77
2021/12/09 08:27:25;;;;;;;103.63;48.88;;;;;;;-0.43;100.00;100452.97;4890459;29;20060;-76
2021/12/09 08:29:51;;;;;;;103.80;48.22;;;;;;;-0.40;100.00;100460.53;4892532;29;20096;-76
2021/12/09 08:32:16;;;;;;;102.15;47.33;;;;;;;-0.38;100.00;100451.88;4888291;29;20040;-76
2021/12/09 08:34:43;;;;;;;113.72;48.55;;;;;;;-0.31;100.00;100454.03;4857520;29;20040;-76
2021/12/09 08:37:09;;;;;;;103.95;49.08;;;;;;;-0.31;100.00;100453.22;4888480;29;20170;-75
2021/12/09 08:39:35;;;;;;;111.47;49.85;;;;;;;-0.30;100.00;100452.28;4890082;29;20096;-75
2021/12/09 08:42:01;;;;;;;112.90;50.40;;;;;;;-0.30;100.00;100447.13;4889507;29;20523;-76
2021/12/09 08:44:27;;;;;;;107.95;48.95;;;;;;;-0.29;100.00;100444.47;4873904;29;20063;-77
2021/12/09 08:46:52;;;;;;;114.05;50.30;;;;;;;-0.25;100.00;100443.38;4878013;29;20032;-76
2021/12/09 08:49:18;;;;;;;118.63;51.80;;;;;;;-0.29;100.00;100447.03;4886324;29;20040;-76
2021/12/09 08:51:44;;;;;;;109.80;48.25;;;;;;;-0.24;100.00;100449.38;4872171;29;20072;-76
2021/12/09 08:54:09;;;;;;;110.55;51.70;;;;;;;-0.26;100.00;100436.56;4871397;29;20056;-76
2021/12/09 08:56:37;;;;;;;103.70;48.15;;;;;;;-0.27;100.00;100431.50;4876889;29;20411;-77
2021/12/09 08:59:04;;;;;;;114.75;49.53;;;;;;;-0.28;100.00;100428.09;4890786;29;20037;-76
2021/12/09 09:01:31;;;;;;;110.60;49.60;;;;;;;-0.20;100.00;100427.69;4890195;29;20044;-76
2021/12/09 09:03:56;;;;;;;115.60;49.25;;;;;;;-0.20;100.00;100433.66;4876273;29;20680;-75
2021/12/09 09:06:22;;;;;;;118.85;51.90;;;;;;;-0.20;100.00;100433.66;4887674;29;20172;-77
2021/12/09 09:08:55;;;;;;;119.28;49.63;;;;;;;-0.16;100.00;100429.16;4867037;29;20032;-77
2021/12/09 09:11:20;;;;;;;115.47;51.38;;;;;;;-0.05;100.00;100438.88;4875402;29;20040;-77
2021/12/09 09:13:46;;;;;;;114.47;49.28;;;;;;;-0.09;100.00;100434.81;4876209;29;20123;-75
2021/12/09 09:16:12;;;;;;;109.93;49.13;;;;;;;-0.14;100.00;100441.97;4875436;29;20734;-75
2021/12/09 09:18:37;;;;;;;114.63;50.38;;;;;;;-0.12;100.00;100437.56;4886075;29;20099;-77
2021/12/09 09:21:03;;;;;;;116.38;50.80;;;;;;;-0.13;100.00;100426.44;4876002;29;20028;-77
2021/12/09 09:23:28;;;;;;;126.47;51.75;;;;;;;-0.08;100.00;100423.56;4891452;29;20075;-76
2021/12/09 09:25:54;;;;;;;117.32;49.95;;;;;;;-0.06;100.00;100424.31;4891208;29;20044;-77
2021/12/09 09:28:20;;;;;;;115.43;49.58;;;;;;;0.04;100.00;100429.78;4890137;29;20048;-76
2021/12/09 09:30:53;;;;;;;117.72;51.00;;;;;;;-0.04;100.00;100425.06;4872853;29;20495;-77
2021/12/09 09:33:20;;;;;;;117.50;50.38;;;;;;;-0.07;100.00;100414.94;4888667;29;20388;-76
2021/12/09 09:35:46;;;;;;;114.18;51.00;;;;;;;-0.02;100.00;100425.81;4891073;29;20028;-76
2021/12/09 09:38:12;;;;;;;120.78;51.58;;;;;;;-0.02;100.00;100423.22;4876265;29;20063;-76
2021/12/09 09:40:49;;;;;;;118.88;52.25;;;;;;;-0.03;100.00;100419.81;4889319;29;20115;-76
2021/12/09 09:44:27;;;;;;;120.18;51.15;;;;;;;-0.02;100.00;100429.22;4858812;29;20037;-76
2021/12/09 09:46:27;;;;;;;114.85;51.35;;;;;;;-0.03;100.00;100421.56;4883902;29;20059;-76
2021/12/09 09:48:54;;;;;;;113.50;49.83;;;;;;;0.03;100.00;100413.50;4890686;29;20060;-76
2021/12/09 09:51:22;;;;;;;118.70;50.88;;;;;;;0.09;100.00;100418.28;4886950;29;20109;-75
2021/12/09 09:53:48;;;;;;;120.55;51.17;;;;;;;0.09;100.00;100425.19;4874841;29;20040;-76
2021/12/09 09:56:19;;;;;;;117.03;50.83;;;;;;;0.02;100.00;100429.88;4889898;29;20119;-75
2021/12/09 09:58:48;;;;;;;119.65;52.22;;;;;;;0.03;100.00;100428.13;4886566;29;20119;-76
2021/12/09 10:01:14;;;;;;;120.68;51.58;;;;;;;0.03;100.00;100430.72;4889152;29;20043;-75
2021/12/09 10:03:46;;;;;;;118.78;49.25;;;;;;;0.03;100.00;100434.13;4890538;29;20044;-76
2021/12/09 10:06:14;;;;;;;123.68;50.65;;;;;;;0.09;100.00;100438.91;4858013;29;20054;-77
2021/12/09 10:08:40;;;;;;;114.50;50.08;;;;;;;0.06;100.00;100443.41;4890351;29;20071;-78
2021/12/09 10:11:06;;;;;;;116.15;50.85;;;;;;;0.04;100.00;100432.34;4888812;29;20531;-75
2021/12/09 10:13:38;;;;;;;109.38;49.78;;;;;;;0.08;100.00;100429.53;4874567;29;20041;-77
2021/12/09 10:16:18;;;;;;;116.32;51.03;;;;;;;0.06;100.00;100440.84;4887246;29;20034;-76
2021/12/09 10:18:46;;;;;;;120.22;51.38;;;;;;;0.09;100.00;100438.91;4887425;29;20748;-76
2021/12/09 10:21:21;;;;;;;116.72;50.35;;;;;;;0.18;100.00;100438.41;4891019;29;20124;-75
2021/12/09 10:23:55;;;;;;;116.78;50.40;;;;;;;0.16;100.00;100442.00;4876797;29;20043;-76
2021/12/09 10:26:22;;;;;;;118.55;51.38;;;;;;;0.07;100.00;100439.94;4892839;29;20037;-76
2021/12/09 10:29:01;;;;;;;114.25;50.45;;;;;;;0.07;100.00;100432.19;4878243;29;20040;-77
2021/12/09 10:31:30;;;;;;;118.72;50.45;;;;;;;0.09;100.00;100422.63;4878695;29;20037;-76
2021/12/09 10:34:01;;;;;;;110.30;49.55;;;;;;;0.11;100.00;100420.78;4876756;29;20096;-77
2021/12/09 10:36:45;;;;;;;116.50;50.35;;;;;;;0.07;100.00;100424.47;4910863;29;20131;-76
2021/12/09 10:39:16;;;;;;;108.70;48.63;;;;;;;0.04;100.00;100415.16;4877184;29;20036;-76
2021/12/09 10:41:42;;;;;;;109.65;49.45;;;;;;;0.03;100.00;100415.25;4879010;29;20068;-76
2021/12/09 10:44:07;;;;;;;112.68;49.63;;;;;;;-0.02;100.00;100413.75;4878407;29;20070;-75
2021/12/09 10:47:06;;;;;;;112.05;50.00;;;;;;;-0.05;100.00;100406.19;4877912;29;20104;-76
2021/12/09 10:49:39;;;;;;;113.78;50.25;;;;;;;0.02;100.00;100405.84;4876355;29;20043;-76
2021/12/09 10:52:23;;;;;;;113.50;49.85;;;;;;;-0.02;100.00;100407.75;4893594;29;20076;-76
2021/12/09 10:54:49;;;;;;;105.53;48.35;;;;;;;-0.03;100.00;100401.78;4863476;29;20048;-77
2021/12/09 10:57:29;;;;;;;113.13;50.65;;;;;;;0.01;100.00;100404.19;4877039;29;20479;-76
2021/12/09 10:59:57;;;;;;;109.18;49.30;;;;;;;-0.08;100.00;100411.50;4875280;29;20067;-77
2021/12/09 11:02:24;;;;;;;114.97;50.95;;;;;;;-0.02;100.00;100405.16;4875875;29;20051;-75
2021/12/09 11:04:58;;;;;;;107.95;50.08;;;;;;;-0.07;100.00;100394.31;4878903;29;20653;-76
2021/12/09 11:07:31;;;;;;;118.40;51.47;;;;;;;-0.01;100.00;100399.09;4878059;29;20083;-76